createdAt,value
2018-01-17T00:00:54.061Z,46.00
2018-01-17T00:03:21.545Z,46.10
2018-01-17T00:05:49.128Z,46.10
2018-01-17T00:08:16.794Z,46.00
2018-01-17T00:10:44.260Z,46.10
2018-01-17T00:13:11.710Z,46.10
2018-01-17T00:15:39.272Z,46.20
2018-01-17T00:18:06.910Z,46.20
2018-01-17T00:20:34.379Z,46.30
2018-01-17T00:23:01.936Z,46.40
2018-01-17T00:25:29.412Z,46.40
2018-01-17T00:27:57.176Z,46.40
2018-01-17T00:30:24.921Z,46.40
2018-01-17T00:32:52.693Z,46.40
2018-01-17T00:35:20.147Z,46.40
2018-01-17T00:37:47.648Z,46.40
2018-01-17T00:40:15.249Z,46.40
2018-01-17T00:42:42.758Z,46.50
2018-01-17T00:45:10.201Z,46.50
2018-01-17T00:47:37.689Z,46.50
2018-01-17T00:50:05.206Z,46.50
2018-01-17T00:52:32.676Z,46.50
2018-01-17T00:55:00.156Z,46.50
2018-01-17T00:57:27.918Z,46.50
2018-01-17T00:59:55.386Z,46.50
2018-01-17T01:02:22.953Z,46.50
2018-01-17T01:04:50.601Z,46.50
2018-01-17T01:07:18.070Z,46.50
2018-01-17T01:09:45.685Z,46.50
2018-01-17T01:12:13.157Z,46.60
2018-01-17T01:14:41.518Z,46.60
2018-01-17T01:17:09.009Z,46.60
2018-01-17T01:19:36.571Z,46.70
2018-01-17T01:22:05.547Z,46.70
2018-01-17T01:24:33.020Z,46.60
2018-01-17T01:27:00.650Z,46.60
2018-01-17T01:29:28.222Z,46.70
2018-01-17T01:31:55.697Z,46.70
2018-01-17T01:34:23.267Z,46.70
2018-01-17T01:36:50.730Z,46.70
2018-01-17T01:39:18.976Z,47.40
2018-01-17T01:41:46.428Z,46.80
2018-01-17T01:44:13.928Z,46.80
2018-01-17T01:46:41.673Z,46.80
2018-01-17T01:49:09.166Z,46.80
2018-01-17T01:51:36.644Z,46.90
2018-01-17T01:54:04.208Z,46.80
2018-01-17T01:56:31.677Z,46.90
2018-01-17T01:58:59.235Z,46.90
2018-01-17T02:01:27.025Z,46.90
2018-01-17T02:03:54.803Z,47.00
2018-01-17T02:06:22.565Z,47.00
2018-01-17T02:08:50.216Z,47.00
2018-01-17T02:11:17.776Z,47.00
2018-01-17T02:13:45.438Z,47.00
2018-01-17T02:16:12.898Z,47.00
2018-01-17T02:18:41.143Z,47.10
2018-01-17T02:21:08.597Z,47.70
2018-01-17T02:23:36.156Z,47.00
2018-01-17T02:26:03.748Z,47.10
2018-01-17T02:28:31.414Z,47.00
2018-01-17T02:30:58.898Z,47.00
2018-01-17T02:33:26.349Z,46.90
2018-01-17T02:35:53.889Z,47.00
2018-01-17T02:38:21.344Z,47.00
2018-01-17T02:40:48.811Z,46.90
2018-01-17T02:43:16.268Z,47.00
2018-01-17T02:45:43.745Z,47.00
2018-01-17T02:48:11.197Z,47.00
2018-01-17T02:50:38.948Z,47.00
2018-01-17T02:53:06.416Z,47.00
2018-01-17T02:55:33.999Z,47.10
2018-01-17T02:58:02.249Z,47.10
2018-01-17T03:00:29.707Z,47.10
2018-01-17T03:02:57.328Z,47.10
2018-01-17T03:05:24.800Z,47.10
2018-01-17T03:07:52.265Z,47.10
2018-01-17T03:10:19.840Z,47.20
2018-01-17T03:12:47.404Z,47.10
2018-01-17T03:15:14.936Z,47.10
2018-01-17T03:17:42.513Z,47.10
2018-01-17T03:20:09.977Z,47.10
2018-01-17T03:22:37.615Z,47.10
2018-01-17T03:25:05.073Z,47.10
2018-01-17T03:27:32.585Z,47.10
2018-01-17T03:30:00.069Z,47.20
2018-01-17T03:32:27.567Z,47.20
2018-01-17T03:34:55.034Z,47.20
2018-01-17T03:37:22.512Z,47.20
2018-01-17T03:39:50.137Z,47.20
2018-01-17T03:42:17.734Z,47.20
2018-01-17T03:44:45.353Z,47.20
2018-01-17T03:47:12.978Z,47.20
2018-01-17T03:49:40.737Z,47.90
2018-01-17T03:52:08.196Z,47.30
2018-01-17T03:54:35.858Z,47.20
2018-01-17T03:57:12.265Z,47.30
2018-01-17T03:59:39.717Z,47.30
2018-01-17T04:02:07.200Z,47.40
2018-01-17T04:04:34.855Z,47.30
2018-01-17T04:07:02.322Z,47.30
2018-01-17T04:09:29.913Z,47.30
2018-01-17T04:11:57.366Z,47.30
2018-01-17T04:14:25.104Z,47.30
2018-01-17T04:16:52.749Z,47.30
2018-01-17T04:19:20.212Z,47.30
2018-01-17T04:21:47.703Z,47.30
2018-01-17T04:24:15.162Z,47.20
2018-01-17T04:26:42.725Z,47.20
2018-01-17T04:29:10.214Z,47.30
2018-01-17T04:31:37.940Z,47.20
2018-01-17T04:34:05.720Z,47.20
2018-01-17T04:36:33.280Z,47.20
2018-01-17T04:39:01.525Z,47.80
2018-01-17T04:41:28.976Z,47.30
2018-01-17T04:43:56.640Z,47.30
2018-01-17T04:46:24.115Z,47.30
2018-01-17T04:48:51.593Z,47.30
2018-01-17T04:51:19.051Z,47.30
2018-01-17T04:53:46.759Z,47.30
2018-01-17T04:56:14.233Z,47.30
2018-01-17T04:58:41.707Z,47.30
2018-01-17T05:01:09.164Z,47.30
2018-01-17T05:03:36.732Z,47.40
2018-01-17T05:06:04.372Z,47.40
2018-01-17T05:08:31.945Z,47.40
2018-01-17T05:10:59.608Z,47.40
2018-01-17T05:13:27.065Z,47.40
2018-01-17T05:15:54.649Z,47.50
2018-01-17T05:18:22.114Z,47.40
2018-01-17T05:20:49.555Z,47.70
2018-01-17T05:23:17.015Z,46.90
2018-01-17T05:25:44.836Z,45.70
2018-01-17T05:28:12.485Z,44.50
2018-01-17T05:30:39.944Z,43.50
2018-01-17T05:33:07.396Z,42.50
2018-01-17T05:35:34.852Z,41.70
2018-01-17T05:38:02.375Z,42.40
2018-01-17T05:40:29.853Z,42.80
2018-01-17T05:42:57.478Z,43.30
2018-01-17T05:45:25.072Z,43.50
2018-01-17T05:47:52.825Z,43.70
2018-01-17T05:50:20.584Z,43.80
2018-01-17T05:52:48.051Z,43.90
2018-01-17T05:55:15.683Z,44.00
2018-01-17T05:57:43.144Z,44.20
2018-01-17T06:00:10.641Z,44.30
2018-01-17T06:02:38.105Z,44.20
2018-01-17T06:05:05.667Z,44.20
2018-01-17T06:07:33.427Z,45.00
2018-01-17T06:10:00.884Z,46.60
2018-01-17T06:12:28.597Z,46.40
2018-01-17T06:14:56.099Z,47.10
2018-01-17T06:17:23.780Z,46.10
2018-01-17T06:19:51.368Z,45.20
2018-01-17T06:22:18.985Z,45.50
2018-01-17T06:24:46.436Z,45.60
2018-01-17T06:27:13.916Z,46.00
2018-01-17T06:29:41.453Z,45.90
2018-01-17T06:32:08.979Z,46.10
2018-01-17T06:34:36.437Z,46.10
2018-01-17T06:37:03.894Z,46.20
2018-01-17T06:39:31.508Z,46.30
2018-01-17T06:41:59.731Z,46.70
2018-01-17T06:44:27.314Z,46.70
2018-01-17T06:46:54.793Z,46.70
2018-01-17T06:49:22.238Z,47.00
2018-01-17T06:51:49.692Z,47.00
2018-01-17T06:54:17.164Z,47.10
2018-01-17T06:56:44.620Z,47.10
2018-01-17T06:59:12.098Z,47.20
2018-01-17T07:01:39.624Z,47.20
2018-01-17T07:04:07.284Z,47.20
2018-01-17T07:06:34.740Z,47.20
2018-01-17T07:09:02.217Z,47.20
2018-01-17T07:11:29.709Z,47.20
2018-01-17T07:13:57.180Z,47.30
2018-01-17T07:16:24.636Z,47.30
2018-01-17T07:18:52.113Z,47.30
2018-01-17T07:21:19.552Z,47.30
2018-01-17T07:23:47.044Z,47.40
2018-01-17T07:26:14.480Z,47.30
2018-01-17T07:28:41.953Z,47.30
2018-01-17T07:31:09.417Z,47.30
2018-01-17T07:33:36.897Z,47.30
2018-01-17T07:36:04.349Z,47.30
2018-01-17T07:38:32.010Z,47.20
2018-01-17T07:40:59.533Z,47.20
2018-01-17T07:43:27.043Z,47.20
2018-01-17T07:45:54.662Z,47.30
2018-01-17T07:48:22.145Z,47.30
2018-01-17T07:50:49.640Z,47.30
2018-01-17T07:53:17.089Z,47.30
2018-01-17T07:55:44.568Z,47.30
2018-01-17T07:58:12.024Z,47.40
2018-01-17T08:00:39.592Z,47.40
2018-01-17T08:03:07.029Z,47.30
2018-01-17T08:05:34.784Z,47.30
2018-01-17T08:08:02.243Z,47.40
2018-01-17T08:10:29.704Z,47.40
2018-01-17T08:12:57.157Z,47.40
2018-01-17T08:15:24.620Z,47.50
2018-01-17T08:17:52.277Z,47.40
2018-01-17T08:20:19.737Z,47.50
2018-01-17T08:22:47.217Z,47.50
2018-01-17T08:25:14.696Z,47.50
2018-01-17T08:27:42.125Z,47.50
2018-01-17T08:30:09.648Z,47.60
2018-01-17T08:32:37.144Z,47.50
2018-01-17T08:35:04.800Z,47.50
2018-01-17T08:37:32.241Z,47.50
2018-01-17T08:39:59.703Z,47.60
2018-01-17T08:42:28.060Z,47.60
2018-01-17T08:44:55.557Z,47.60
2018-01-17T08:47:23.084Z,47.60
2018-01-17T08:49:50.725Z,47.60
2018-01-17T08:52:18.218Z,47.60
2018-01-17T08:54:45.665Z,47.60
2018-01-17T08:57:13.226Z,47.60
2018-01-17T08:59:40.988Z,47.60
2018-01-17T09:02:08.751Z,47.60
2018-01-17T09:04:36.217Z,47.60
2018-01-17T09:07:03.865Z,47.70
2018-01-17T09:09:31.352Z,47.60
2018-01-17T09:11:58.820Z,47.60
2018-01-17T09:14:26.300Z,47.70
2018-01-17T09:16:53.780Z,47.60
2018-01-17T09:19:21.245Z,47.60
2018-01-17T09:21:48.704Z,47.60
2018-01-17T09:24:16.164Z,47.60
2018-01-17T09:26:43.628Z,47.60
2018-01-17T09:29:11.081Z,47.60
2018-01-17T09:31:38.549Z,47.60
2018-01-17T09:34:06.000Z,47.70
2018-01-17T09:36:33.450Z,47.70
2018-01-17T09:39:00.905Z,47.70
2018-01-17T09:41:28.362Z,47.70
2018-01-17T09:43:55.816Z,47.70
2018-01-17T09:46:23.556Z,47.80
2018-01-17T09:48:51.000Z,47.70
2018-01-17T09:51:18.460Z,47.60
2018-01-17T09:53:45.935Z,47.70
2018-01-17T09:56:13.411Z,47.70
2018-01-17T09:58:40.870Z,47.70
2018-01-17T10:01:08.328Z,48.30
2018-01-17T10:03:35.861Z,47.70
2018-01-17T10:06:03.285Z,47.70
2018-01-17T10:08:31.049Z,47.70
2018-01-17T10:10:58.684Z,47.80
2018-01-17T10:13:26.240Z,47.80
2018-01-17T10:15:53.687Z,47.80
2018-01-17T10:18:21.153Z,47.80
2018-01-17T10:20:48.656Z,47.70
2018-01-17T10:23:16.129Z,47.70
2018-01-17T10:25:43.570Z,47.70
2018-01-17T10:28:11.048Z,47.70
2018-01-17T10:30:38.542Z,47.70
2018-01-17T10:33:06.114Z,47.70
2018-01-17T10:35:33.717Z,47.70
2018-01-17T10:38:01.164Z,47.70
2018-01-17T10:40:28.621Z,47.70
2018-01-17T10:42:56.083Z,47.70
2018-01-17T10:45:23.539Z,47.70
2018-01-17T10:47:50.992Z,47.70
2018-01-17T10:50:18.448Z,47.70
2018-01-17T10:52:46.245Z,47.70
2018-01-17T10:55:13.711Z,47.70
2018-01-17T10:57:41.317Z,47.70
2018-01-17T11:00:08.788Z,47.70
2018-01-17T11:02:37.205Z,47.70
2018-01-17T11:05:04.671Z,47.70
2018-01-17T11:07:32.120Z,47.70
2018-01-17T11:09:59.591Z,47.60
2018-01-17T11:12:27.049Z,47.70
2018-01-17T11:14:54.570Z,47.60
2018-01-17T11:17:22.328Z,47.70
2018-01-17T11:19:50.150Z,47.60
2018-01-17T11:22:17.802Z,47.60
2018-01-17T11:24:45.247Z,47.60
2018-01-17T11:27:12.712Z,47.60
2018-01-17T11:29:40.173Z,47.60
2018-01-17T11:32:07.624Z,47.60
2018-01-17T11:34:35.088Z,47.60
2018-01-17T11:37:02.544Z,47.60
2018-01-17T11:39:30.093Z,47.60
2018-01-17T11:41:57.555Z,47.60
2018-01-17T11:44:25.005Z,47.60
2018-01-17T11:46:52.469Z,47.50
2018-01-17T11:49:20.233Z,47.60
2018-01-17T11:51:47.999Z,47.50
2018-01-17T11:54:15.766Z,47.50
2018-01-17T11:56:43.220Z,47.60
2018-01-17T11:59:10.710Z,47.60
2018-01-17T12:01:38.338Z,47.70
2018-01-17T12:04:06.409Z,47.70
2018-01-17T12:06:33.954Z,47.60
2018-01-17T12:09:01.497Z,47.60
2018-01-17T12:11:28.992Z,47.60
2018-01-17T12:13:56.565Z,47.60
2018-01-17T12:16:24.000Z,47.60
2018-01-17T12:18:51.464Z,47.60
2018-01-17T12:21:19.714Z,47.60
2018-01-17T12:23:47.174Z,47.60
2018-01-17T12:26:14.636Z,47.60
2018-01-17T12:28:42.205Z,47.60
2018-01-17T12:31:09.695Z,47.50
2018-01-17T12:33:37.146Z,47.60
2018-01-17T12:36:04.692Z,47.80
2018-01-17T12:38:32.216Z,47.90
2018-01-17T12:40:59.911Z,47.70
2018-01-17T12:43:27.357Z,47.70
2018-01-17T12:45:54.825Z,47.50
2018-01-17T12:48:22.294Z,47.50
2018-01-17T12:50:50.018Z,47.50
2018-01-17T12:53:17.497Z,47.40
2018-01-17T12:55:44.968Z,47.50
2018-01-17T12:58:12.581Z,47.60
2018-01-17T13:00:40.032Z,47.80
2018-01-17T13:03:07.589Z,47.90
2018-01-17T13:05:35.036Z,47.90
2018-01-17T13:08:02.501Z,48.00
2018-01-17T13:10:29.947Z,48.20
2018-01-17T13:12:57.430Z,48.20
2018-01-17T13:15:24.896Z,48.20
2018-01-17T13:17:52.352Z,48.30
2018-01-17T13:20:19.800Z,48.30
2018-01-17T13:22:47.270Z,48.40
2018-01-17T13:25:14.730Z,48.50
2018-01-17T13:27:42.188Z,49.70
2018-01-17T13:30:09.658Z,49.10
2018-01-17T13:32:37.128Z,48.60
2018-01-17T13:35:04.781Z,48.60
2018-01-17T13:37:32.224Z,48.50
2018-01-17T13:39:59.729Z,48.40
2018-01-17T13:42:27.279Z,48.50
2018-01-17T13:44:54.750Z,48.50
2018-01-17T13:47:22.366Z,48.40
2018-01-17T13:49:49.865Z,48.50
2018-01-17T13:52:17.313Z,48.50
2018-01-17T13:54:44.768Z,48.40
2018-01-17T13:57:12.220Z,48.40
2018-01-17T13:59:39.685Z,48.40
2018-01-17T14:02:07.346Z,48.40
2018-01-17T14:04:35.007Z,48.40
2018-01-17T14:07:02.476Z,48.40
2018-01-17T14:09:29.930Z,48.40
2018-01-17T14:11:57.372Z,48.50
2018-01-17T14:14:24.944Z,48.50
2018-01-17T14:16:52.489Z,48.50
2018-01-17T14:19:20.002Z,48.40
2018-01-17T14:21:47.440Z,48.40
2018-01-17T14:24:14.995Z,48.40
2018-01-17T14:26:42.440Z,48.40
2018-01-17T14:29:09.885Z,48.50
2018-01-17T14:31:37.336Z,48.50
2018-01-17T14:34:04.789Z,48.50
2018-01-17T14:36:32.256Z,48.50
2018-01-17T14:39:00.044Z,48.50
2018-01-17T14:41:27.502Z,48.50
2018-01-17T14:43:55.278Z,53.60
2018-01-17T14:46:23.020Z,52.40
2018-01-17T14:48:50.477Z,51.80
2018-01-17T14:51:18.245Z,51.10
2018-01-17T14:53:45.738Z,50.60
2018-01-17T14:56:13.365Z,50.30
2018-01-17T14:58:40.830Z,50.10
2018-01-17T15:01:08.484Z,49.90
2018-01-17T15:03:36.080Z,49.60
2018-01-17T15:06:03.553Z,49.50
2018-01-17T15:08:31.009Z,49.40
2018-01-17T15:10:58.468Z,49.30
2018-01-17T15:13:25.923Z,49.20
2018-01-17T15:15:53.368Z,49.20
2018-01-17T15:18:20.921Z,49.10
2018-01-17T15:20:48.552Z,49.10
2018-01-17T15:23:16.033Z,49.10
2018-01-17T15:25:43.495Z,49.10
2018-01-17T15:28:10.998Z,49.10
2018-01-17T15:30:38.486Z,49.00
2018-01-17T15:33:06.247Z,49.00
2018-01-17T15:35:33.888Z,48.90
2018-01-17T15:38:01.343Z,48.90
2018-01-17T15:40:28.783Z,48.90
2018-01-17T15:42:56.240Z,49.00
2018-01-17T15:45:23.857Z,48.90
2018-01-17T15:47:51.627Z,49.50
2018-01-17T15:50:19.077Z,48.90
2018-01-17T15:52:46.549Z,48.80
2018-01-17T15:55:14.020Z,48.90
2018-01-17T15:57:41.635Z,48.90
2018-01-17T16:00:09.224Z,48.90
2018-01-17T16:02:36.686Z,48.80
2018-01-17T16:05:04.303Z,48.70
2018-01-17T16:07:31.768Z,48.70
2018-01-17T16:09:59.220Z,48.70
2018-01-17T16:12:26.691Z,48.70
2018-01-17T16:14:54.143Z,48.70
2018-01-17T16:17:22.414Z,48.60
2018-01-17T16:19:50.029Z,48.60
2018-01-17T16:22:17.487Z,48.50
2018-01-17T16:24:45.050Z,48.50
2018-01-17T16:27:12.805Z,48.50
2018-01-17T16:29:40.605Z,48.50
2018-01-17T16:32:08.209Z,48.50
2018-01-17T16:34:35.692Z,48.50
2018-01-17T16:37:03.249Z,48.50
2018-01-17T16:39:30.891Z,48.50
2018-01-17T16:41:58.397Z,48.50
2018-01-17T16:44:25.849Z,48.50
2018-01-17T16:46:53.303Z,48.50
2018-01-17T16:49:20.764Z,48.50
2018-01-17T16:51:48.216Z,48.40
2018-01-17T16:54:15.992Z,48.50
2018-01-17T16:56:43.449Z,48.40
2018-01-17T16:59:11.001Z,48.50
2018-01-17T17:01:38.763Z,48.40
2018-01-17T17:04:06.232Z,48.40
2018-01-17T17:06:33.685Z,48.40
2018-01-17T17:09:01.137Z,48.40
2018-01-17T17:11:28.880Z,48.40
2018-01-17T17:13:56.513Z,48.30
2018-01-17T17:16:23.998Z,48.20
2018-01-17T17:18:51.582Z,48.20
2018-01-17T17:21:19.349Z,48.20
2018-01-17T17:23:46.808Z,48.30
2018-01-17T17:26:14.279Z,48.80
2018-01-17T17:28:41.734Z,48.20
2018-01-17T17:31:09.373Z,48.10
2018-01-17T17:33:36.833Z,48.20
2018-01-17T17:36:04.410Z,48.30
2018-01-17T17:38:32.033Z,48.20
2018-01-17T17:40:59.656Z,48.30
2018-01-17T17:43:27.373Z,48.30
2018-01-17T17:45:54.833Z,48.30
2018-01-17T17:48:22.323Z,48.30
2018-01-17T17:50:49.794Z,48.20
2018-01-17T17:53:17.423Z,48.20
2018-01-17T17:55:44.877Z,48.20
2018-01-17T17:58:12.336Z,48.30
2018-01-17T18:00:39.792Z,48.30
2018-01-17T18:03:07.272Z,48.30
2018-01-17T18:05:34.764Z,48.30
2018-01-17T18:08:02.208Z,48.30
2018-01-17T18:10:29.725Z,48.30
2018-01-17T18:12:57.363Z,48.20
2018-01-17T18:15:24.816Z,48.20
2018-01-17T18:17:52.396Z,48.20
2018-01-17T18:20:19.859Z,48.20
2018-01-17T18:22:47.324Z,48.10
2018-01-17T18:25:14.772Z,48.20
2018-01-17T18:27:42.434Z,48.40
2018-01-17T18:30:09.885Z,48.40
2018-01-17T18:32:37.756Z,48.30
2018-01-17T18:35:05.252Z,48.50
2018-01-17T18:37:32.921Z,48.30
2018-01-17T18:40:00.420Z,48.40
2018-01-17T18:42:27.881Z,48.30
2018-01-17T18:44:55.538Z,48.20
2018-01-17T18:47:22.998Z,48.30
2018-01-17T18:49:50.516Z,48.20
2018-01-17T18:52:17.976Z,48.70
2018-01-17T18:54:45.429Z,49.30
2018-01-17T18:57:13.666Z,48.30
2018-01-17T18:59:41.353Z,48.50
2018-01-17T19:02:09.058Z,48.60
2018-01-17T19:04:36.527Z,48.60
2018-01-17T19:07:03.982Z,48.50
2018-01-17T19:09:31.530Z,48.60
2018-01-17T19:11:59.273Z,48.60
2018-01-17T19:14:27.043Z,48.50
2018-01-17T19:16:54.493Z,48.60
2018-01-17T19:19:22.288Z,48.60
2018-01-17T19:21:49.748Z,48.60
2018-01-17T19:24:17.337Z,48.70
2018-01-17T19:26:44.788Z,48.60
2018-01-17T19:29:12.263Z,48.70
2018-01-17T19:31:39.801Z,48.70
2018-01-17T19:34:07.256Z,48.70
2018-01-17T19:36:34.786Z,48.70
2018-01-17T19:39:02.242Z,48.70
2018-01-17T19:41:30.513Z,48.70
2018-01-17T19:43:58.009Z,48.70
2018-01-17T19:46:25.444Z,48.70
2018-01-17T19:48:52.949Z,48.70
2018-01-17T19:51:20.773Z,48.70
2018-01-17T19:53:48.321Z,48.70
2018-01-17T19:56:16.559Z,48.80
2018-01-17T19:58:44.336Z,48.60
2018-01-17T20:01:12.049Z,48.70
2018-01-17T20:03:39.537Z,48.70
2018-01-17T20:06:07.326Z,48.70
2018-01-17T20:08:34.899Z,49.30
2018-01-17T20:11:03.137Z,48.70
2018-01-17T20:13:30.593Z,48.70
2018-01-17T20:15:58.912Z,48.60
2018-01-17T20:18:26.427Z,48.50
2018-01-17T20:20:54.072Z,48.60
2018-01-17T20:23:21.528Z,48.70
2018-01-17T20:25:49.020Z,48.70
2018-01-17T20:28:16.484Z,49.70
2018-01-17T20:30:43.968Z,49.30
2018-01-17T20:33:11.413Z,48.90
2018-01-17T20:35:38.874Z,48.90
2018-01-17T20:38:06.416Z,49.00
2018-01-17T20:40:34.078Z,48.90
2018-01-17T20:43:01.551Z,38.80
2018-01-17T20:45:29.016Z,38.30
2018-01-17T20:47:56.552Z,39.60
2018-01-17T20:50:24.329Z,39.90
2018-01-17T20:52:51.996Z,41.00
2018-01-17T20:58:18.903Z,42.20
2018-01-17T21:00:46.639Z,42.70
2018-01-17T21:03:14.097Z,43.00
2018-01-17T21:05:41.540Z,43.30
2018-01-17T21:08:08.996Z,43.40
2018-01-17T21:10:36.440Z,43.70
2018-01-17T21:13:03.893Z,43.90
2018-01-17T21:15:31.336Z,44.10
2018-01-17T21:17:58.798Z,44.20
2018-01-17T21:20:26.244Z,44.40
2018-01-17T21:22:53.702Z,44.80
2018-01-17T21:25:21.153Z,45.00
2018-01-17T21:27:48.608Z,45.10
2018-01-17T21:30:16.056Z,45.30
2018-01-17T21:32:43.505Z,45.50
2018-01-17T21:35:11.054Z,45.60
2018-01-17T21:37:38.515Z,45.80
2018-01-17T21:40:05.956Z,45.90
2018-01-17T21:42:39.257Z,46.10
2018-01-17T21:45:12.450Z,46.20
2018-01-17T21:47:39.904Z,46.40
2018-01-17T21:50:07.358Z,46.30
2018-01-17T21:52:34.813Z,46.50
2018-01-17T21:55:02.400Z,46.60
2018-01-17T21:57:29.868Z,46.60
2018-01-17T21:59:57.330Z,46.60
2018-01-17T22:02:25.069Z,46.70
2018-01-17T22:04:52.846Z,46.80
2018-01-17T22:07:20.316Z,46.80
2018-01-17T22:09:47.764Z,46.80
2018-01-17T22:12:15.216Z,46.80
2018-01-17T22:14:42.861Z,46.80
2018-01-17T22:17:10.430Z,46.90
2018-01-17T22:19:37.888Z,46.90
2018-01-17T22:22:05.336Z,46.90
2018-01-17T22:24:32.800Z,47.00
2018-01-17T22:27:00.253Z,47.00
2018-01-17T22:29:27.722Z,47.00
2018-01-17T22:31:55.172Z,47.00
2018-01-17T22:34:22.961Z,47.10
2018-01-17T22:36:50.584Z,47.10
2018-01-17T22:39:18.042Z,47.10
2018-01-17T22:41:45.501Z,47.10
2018-01-17T22:44:12.972Z,47.20
2018-01-17T22:46:40.420Z,47.20
2018-01-17T22:49:07.929Z,47.20
2018-01-17T22:51:35.385Z,47.20
2018-01-17T22:54:02.836Z,47.20
2018-01-17T22:56:30.281Z,47.10
2018-01-17T22:58:57.736Z,47.30
2018-01-17T23:01:25.292Z,47.20
2018-01-17T23:03:52.736Z,47.30
2018-01-17T23:06:20.396Z,47.20
2018-01-17T23:08:47.887Z,47.20
2018-01-17T23:11:16.352Z,47.30
2018-01-17T23:13:43.802Z,47.30
2018-01-17T23:16:11.263Z,47.30
2018-01-17T23:18:38.735Z,47.30
2018-01-17T23:21:06.192Z,47.30
2018-01-17T23:23:33.640Z,47.30
2018-01-17T23:26:01.410Z,47.30
2018-01-17T23:28:29.183Z,47.30
2018-01-17T23:30:56.637Z,47.30
2018-01-17T23:33:24.088Z,47.30
2018-01-17T23:35:51.544Z,47.30
2018-01-17T23:38:18.994Z,47.40
2018-01-17T23:40:46.554Z,47.30
2018-01-17T23:43:14.012Z,47.30
2018-01-17T23:45:41.473Z,47.40
2018-01-17T23:48:09.145Z,47.30
2018-01-17T23:50:36.779Z,47.30
2018-01-17T23:53:04.280Z,47.40
2018-01-17T23:55:31.720Z,47.40
2018-01-17T23:57:59.201Z,47.40
